sensor_id;sensor_type;location;lat;lon;timestamp;pressure;altitude;pressure_sealevel;temperature;humidity
13869;BME280;7004;48.206;16.402;2024-01-25T00:01:57;100301.31;;;10.36;61.61
13869;BME280;7004;48.206;16.402;2024-01-25T00:04:24;100292.63;;;10.34;61.80
13869;BME280;7004;48.206;16.402;2024-01-25T00:06:51;100296.66;;;10.41;61.48
13869;BME280;7004;48.206;16.402;2024-01-25T00:09:17;100295.63;;;10.26;62.23
13869;BME280;7004;48.206;16.402;2024-01-25T00:11:43;100296.03;;;10.36;61.36
13869;BME280;7004;48.206;16.402;2024-01-25T00:14:10;100295.31;;;10.32;61.47
13869;BME280;7004;48.206;16.402;2024-01-25T00:16:41;100280.59;;;10.28;61.50
13869;BME280;7004;48.206;16.402;2024-01-25T00:19:08;100286.75;;;10.27;61.64
13869;BME280;7004;48.206;16.402;2024-01-25T00:21:34;100293.47;;;10.34;61.55
13869;BME280;7004;48.206;16.402;2024-01-25T00:24:01;100297.72;;;10.37;61.14
13869;BME280;7004;48.206;16.402;2024-01-25T00:26:27;100289.38;;;10.28;61.53
13869;BME280;7004;48.206;16.402;2024-01-25T00:28:53;100287.16;;;10.37;61.53
13869;BME280;7004;48.206;16.402;2024-01-25T00:31:20;100291.59;;;10.36;61.54
13869;BME280;7004;48.206;16.402;2024-01-25T00:33:46;100292.78;;;10.31;61.61
13869;BME280;7004;48.206;16.402;2024-01-25T00:36:13;100297.59;;;10.22;61.84
13869;BME280;7004;48.206;16.402;2024-01-25T00:38:39;100295.59;;;10.27;61.88
13869;BME280;7004;48.206;16.402;2024-01-25T00:41:09;100301.22;;;10.37;61.43
13869;BME280;7004;48.206;16.402;2024-01-25T00:43:36;100289.38;;;10.28;62.11
13869;BME280;7004;48.206;16.402;2024-01-25T00:46:03;100297.72;;;10.19;62.09
13869;BME280;7004;48.206;16.402;2024-01-25T00:48:30;100291.38;;;10.23;61.66
13869;BME280;7004;48.206;16.402;2024-01-25T00:50:57;100297.44;;;10.25;62.10
13869;BME280;7004;48.206;16.402;2024-01-25T00:53:24;100297.84;;;10.18;62.46
13869;BME280;7004;48.206;16.402;2024-01-25T00:55:50;100295.09;;;10.19;62.61
13869;BME280;7004;48.206;16.402;2024-01-25T00:58:17;100313.47;;;10.05;63.03
13869;BME280;7004;48.206;16.402;2024-01-25T01:00:44;100316.50;;;10.15;62.39
13869;BME280;7004;48.206;16.402;2024-01-25T01:03:11;100313.59;;;10.19;62.37
13869;BME280;7004;48.206;16.402;2024-01-25T01:05:40;100317.25;;;10.17;62.55
13869;BME280;7004;48.206;16.402;2024-01-25T01:08:07;100289.53;;;10.08;62.04
13869;BME280;7004;48.206;16.402;2024-01-25T01:10:33;100313.97;;;10.12;62.25
13869;BME280;7004;48.206;16.402;2024-01-25T01:12:59;100302.84;;;10.06;62.39
13869;BME280;7004;48.206;16.402;2024-01-25T01:15:25;100304.53;;;10.07;62.19
13869;BME280;7004;48.206;16.402;2024-01-25T01:17:52;100297.63;;;10.05;61.93
13869;BME280;7004;48.206;16.402;2024-01-25T01:20:18;100305.38;;;10.08;61.82
13869;BME280;7004;48.206;16.402;2024-01-25T01:22:45;100321.09;;;9.94;62.29
13869;BME280;7004;48.206;16.402;2024-01-25T01:25:11;100308.34;;;10.02;61.60
13869;BME280;7004;48.206;16.402;2024-01-25T01:27:37;100308.19;;;10.05;61.47
13869;BME280;7004;48.206;16.402;2024-01-25T01:30:04;100309.13;;;10.04;61.64
13869;BME280;7004;48.206;16.402;2024-01-25T01:32:31;100306.72;;;9.99;61.21
13869;BME280;7004;48.206;16.402;2024-01-25T01:34:57;100305.78;;;10.00;61.40
13869;BME280;7004;48.206;16.402;2024-01-25T01:37:25;100311.28;;;9.96;61.21
13869;BME280;7004;48.206;16.402;2024-01-25T01:39:51;100306.00;;;9.96;61.51
13869;BME280;7004;48.206;16.402;2024-01-25T01:42:18;100309.19;;;9.85;61.94
13869;BME280;7004;48.206;16.402;2024-01-25T01:44:44;100304.78;;;9.85;62.05
13869;BME280;7004;48.206;16.402;2024-01-25T01:47:10;100296.16;;;9.82;61.92
13869;BME280;7004;48.206;16.402;2024-01-25T01:49:37;100289.03;;;9.84;61.41
13869;BME280;7004;48.206;16.402;2024-01-25T01:52:03;100328.47;;;9.87;61.07
13869;BME280;7004;48.206;16.402;2024-01-25T01:54:29;100313.47;;;9.88;61.32
13869;BME280;7004;48.206;16.402;2024-01-25T01:56:56;100306.88;;;9.79;61.80
13869;BME280;7004;48.206;16.402;2024-01-25T01:59:22;100310.59;;;9.92;61.41
13869;BME280;7004;48.206;16.402;2024-01-25T02:01:52;100302.28;;;9.82;61.37
13869;BME280;7004;48.206;16.402;2024-01-25T02:04:18;100318.22;;;9.81;61.02
13869;BME280;7004;48.206;16.402;2024-01-25T02:06:44;100310.59;;;9.75;61.73
13869;BME280;7004;48.206;16.402;2024-01-25T02:09:13;100309.44;;;9.80;61.62
13869;BME280;7004;48.206;16.402;2024-01-25T02:11:39;100314.34;;;9.71;61.80
13869;BME280;7004;48.206;16.402;2024-01-25T02:14:05;100316.81;;;9.74;62.38
13869;BME280;7004;48.206;16.402;2024-01-25T02:16:36;100299.19;;;9.74;61.65
13869;BME280;7004;48.206;16.402;2024-01-25T02:19:02;100312.31;;;9.76;61.36
13869;BME280;7004;48.206;16.402;2024-01-25T02:21:28;100307.50;;;9.84;61.34
13869;BME280;7004;48.206;16.402;2024-01-25T02:23:54;100326.38;;;9.76;61.81
13869;BME280;7004;48.206;16.402;2024-01-25T02:26:20;100312.31;;;9.76;61.60
13869;BME280;7004;48.206;16.402;2024-01-25T02:28:47;100303.84;;;9.87;60.88
13869;BME280;7004;48.206;16.402;2024-01-25T02:31:13;100307.66;;;9.81;61.07
13869;BME280;7004;48.206;16.402;2024-01-25T02:33:39;100300.88;;;9.75;62.15
13869;BME280;7004;48.206;16.402;2024-01-25T02:36:05;100301.81;;;9.74;61.72
13869;BME280;7004;48.206;16.402;2024-01-25T02:38:31;100307.97;;;9.75;61.87
13869;BME280;7004;48.206;16.402;2024-01-25T02:40:57;100301.22;;;9.69;62.57
13869;BME280;7004;48.206;16.402;2024-01-25T02:43:23;100301.03;;;9.72;62.32
13869;BME280;7004;48.206;16.402;2024-01-25T02:45:50;100302.53;;;9.60;62.94
13869;BME280;7004;48.206;16.402;2024-01-25T02:48:16;100303.41;;;9.78;62.07
13869;BME280;7004;48.206;16.402;2024-01-25T02:50:43;100302.28;;;9.82;61.78
13869;BME280;7004;48.206;16.402;2024-01-25T02:53:09;100299.19;;;9.74;61.86
13869;BME280;7004;48.206;16.402;2024-01-25T02:55:35;100306.78;;;9.80;61.26
13869;BME280;7004;48.206;16.402;2024-01-25T02:58:02;100301.59;;;9.79;61.57
13869;BME280;7004;48.206;16.402;2024-01-25T03:00:28;100285.38;;;9.87;61.36
13869;BME280;7004;48.206;16.402;2024-01-25T03:02:54;100281.31;;;9.62;61.86
13869;BME280;7004;48.206;16.402;2024-01-25T03:05:20;100295.75;;;9.72;61.48
13869;BME280;7004;48.206;16.402;2024-01-25T03:07:48;100289.41;;;9.59;61.51
13869;BME280;7004;48.206;16.402;2024-01-25T03:10:14;100297.56;;;9.72;61.15
13869;BME280;7004;48.206;16.402;2024-01-25T03:12:43;100296.16;;;9.65;61.87
13869;BME280;7004;48.206;16.402;2024-01-25T03:15:13;100290.75;;;9.68;61.09
13869;BME280;7004;48.206;16.402;2024-01-25T03:17:43;100272.72;;;9.58;60.96
13869;BME280;7004;48.206;16.402;2024-01-25T03:20:10;100288.63;;;9.57;60.76
13869;BME280;7004;48.206;16.402;2024-01-25T03:22:39;100281.41;;;9.60;60.18
13869;BME280;7004;48.206;16.402;2024-01-25T03:25:06;100298.03;;;9.62;60.05
13869;BME280;7004;48.206;16.402;2024-01-25T03:27:37;100285.91;;;9.58;59.97
13869;BME280;7004;48.206;16.402;2024-01-25T03:30:05;100296.31;;;9.61;60.56
13869;BME280;7004;48.206;16.402;2024-01-25T03:32:33;100292.44;;;9.69;60.09
13869;BME280;7004;48.206;16.402;2024-01-25T03:35:02;100285.84;;;9.60;60.37
13869;BME280;7004;48.206;16.402;2024-01-25T03:37:29;100278.06;;;9.57;60.81
13869;BME280;7004;48.206;16.402;2024-01-25T03:39:55;100279.06;;;9.54;60.99
13869;BME280;7004;48.206;16.402;2024-01-25T03:42:21;100279.16;;;9.53;61.88
13869;BME280;7004;48.206;16.402;2024-01-25T03:44:47;100287.88;;;9.55;61.52
13869;BME280;7004;48.206;16.402;2024-01-25T03:47:13;100274.34;;;9.61;61.40
13869;BME280;7004;48.206;16.402;2024-01-25T03:49:40;100254.25;;;9.58;62.20
13869;BME280;7004;48.206;16.402;2024-01-25T03:52:06;100264.50;;;9.47;62.78
13869;BME280;7004;48.206;16.402;2024-01-25T03:54:32;100275.81;;;9.49;62.89
13869;BME280;7004;48.206;16.402;2024-01-25T03:56:58;100270.38;;;9.35;64.32
13869;BME280;7004;48.206;16.402;2024-01-25T03:59:25;100263.41;;;9.51;63.40
13869;BME280;7004;48.206;16.402;2024-01-25T04:01:51;100263.25;;;9.37;64.21
13869;BME280;7004;48.206;16.402;2024-01-25T04:04:17;100253.94;;;9.47;63.40
13869;BME280;7004;48.206;16.402;2024-01-25T04:06:46;100269.41;;;9.55;63.67
13869;BME280;7004;48.206;16.402;2024-01-25T04:09:13;100262.63;;;9.49;64.45
13869;BME280;7004;48.206;16.402;2024-01-25T04:11:39;100273.66;;;9.40;64.51
13869;BME280;7004;48.206;16.402;2024-01-25T04:14:05;100268.91;;;9.47;64.39
13869;BME280;7004;48.206;16.402;2024-01-25T04:16:35;100274.44;;;9.42;64.74
13869;BME280;7004;48.206;16.402;2024-01-25T04:19:01;100271.78;;;9.42;65.32
13869;BME280;7004;48.206;16.402;2024-01-25T04:21:28;100281.63;;;9.38;65.12
13869;BME280;7004;48.206;16.402;2024-01-25T04:23:54;100257.88;;;9.38;64.61
13869;BME280;7004;48.206;16.402;2024-01-25T04:26:20;100258.25;;;9.31;65.95
13869;BME280;7004;48.206;16.402;2024-01-25T04:28:46;100266.56;;;9.40;64.67
13869;BME280;7004;48.206;16.402;2024-01-25T04:31:12;100268.06;;;9.46;63.84
13869;BME280;7004;48.206;16.402;2024-01-25T04:33:38;100281.56;;;9.40;63.83
13869;BME280;7004;48.206;16.402;2024-01-25T04:36:06;100273.66;;;9.40;64.42
13869;BME280;7004;48.206;16.402;2024-01-25T04:38:32;100282.03;;;9.48;64.02
13869;BME280;7004;48.206;16.402;2024-01-25T04:40:58;100275.34;;;9.41;64.18
13869;BME280;7004;48.206;16.402;2024-01-25T04:43:25;100278.13;;;9.38;64.42
13869;BME280;7004;48.206;16.402;2024-01-25T04:45:51;100271.31;;;9.34;64.82
13869;BME280;7004;48.206;16.402;2024-01-25T04:48:17;100276.44;;;9.37;64.45
13869;BME280;7004;48.206;16.402;2024-01-25T04:50:43;100286.84;;;9.40;64.37
13869;BME280;7004;48.206;16.402;2024-01-25T04:53:10;100282.00;;;9.31;64.90
13869;BME280;7004;48.206;16.402;2024-01-25T04:55:36;100280.94;;;9.35;65.11
13869;BME280;7004;48.206;16.402;2024-01-25T04:58:02;100281.00;;;9.33;65.05
13869;BME280;7004;48.206;16.402;2024-01-25T05:00:28;100270.91;;;9.41;64.98
13869;BME280;7004;48.206;16.402;2024-01-25T05:02:55;100265.47;;;9.27;64.97
13869;BME280;7004;48.206;16.402;2024-01-25T05:05:21;100269.28;;;9.39;64.88
13869;BME280;7004;48.206;16.402;2024-01-25T05:07:49;100288.91;;;9.33;64.82
13869;BME280;7004;48.206;16.402;2024-01-25T05:10:15;100287.00;;;9.37;64.47
13869;BME280;7004;48.206;16.402;2024-01-25T05:12:41;100268.38;;;9.40;64.75
13869;BME280;7004;48.206;16.402;2024-01-25T05:15:08;100263.16;;;9.38;64.26
13869;BME280;7004;48.206;16.402;2024-01-25T05:17:34;100278.75;;;9.43;64.64
13869;BME280;7004;48.206;16.402;2024-01-25T05:20:00;100268.06;;;9.29;64.84
13869;BME280;7004;48.206;16.402;2024-01-25T05:22:26;100269.53;;;9.34;64.96
13869;BME280;7004;48.206;16.402;2024-01-25T05:24:52;100269.19;;;9.23;65.38
13869;BME280;7004;48.206;16.402;2024-01-25T05:27:18;100253.06;;;9.29;64.79
13869;BME280;7004;48.206;16.402;2024-01-25T05:29:44;100259.66;;;9.21;65.59
13869;BME280;7004;48.206;16.402;2024-01-25T05:32:10;100256.34;;;9.34;64.78
13869;BME280;7004;48.206;16.402;2024-01-25T05:34:37;100249.34;;;9.33;64.84
13869;BME280;7004;48.206;16.402;2024-01-25T05:37:03;100241.91;;;9.24;65.05
13869;BME280;7004;48.206;16.402;2024-01-25T05:39:29;100254.78;;;9.30;64.84
13869;BME280;7004;48.206;16.402;2024-01-25T05:41:55;100248.97;;;9.24;65.45
13869;BME280;7004;48.206;16.402;2024-01-25T05:44:23;100249.13;;;9.38;65.27
13869;BME280;7004;48.206;16.402;2024-01-25T05:46:49;100241.97;;;9.40;64.67
13869;BME280;7004;48.206;16.402;2024-01-25T05:49:15;100235.91;;;9.21;65.07
13869;BME280;7004;48.206;16.402;2024-01-25T05:51:42;100249.66;;;9.27;65.42
13869;BME280;7004;48.206;16.402;2024-01-25T05:54:08;100239.50;;;9.37;64.61
13869;BME280;7004;48.206;16.402;2024-01-25T05:56:34;100247.09;;;9.26;64.86
13869;BME280;7004;48.206;16.402;2024-01-25T05:59:00;100243.31;;;9.31;64.71
13869;BME280;7004;48.206;16.402;2024-01-25T06:01:26;100249.50;;;9.30;65.65
13869;BME280;7004;48.206;16.402;2024-01-25T06:03:52;100240.50;;;9.17;65.21
13869;BME280;7004;48.206;16.402;2024-01-25T06:06:18;100245.97;;;9.12;65.20
13869;BME280;7004;48.206;16.402;2024-01-25T06:08:44;100244.97;;;9.15;64.68
13869;BME280;7004;48.206;16.402;2024-01-25T06:11:10;100256.94;;;9.22;65.04
13869;BME280;7004;48.206;16.402;2024-01-25T06:13:37;100259.34;;;9.27;64.89
13869;BME280;7004;48.206;16.402;2024-01-25T06:16:03;100270.72;;;9.10;65.17
13869;BME280;7004;48.206;16.402;2024-01-25T06:18:29;100282.47;;;9.22;64.76
13869;BME280;7004;48.206;16.402;2024-01-25T06:20:55;100270.34;;;9.17;64.64
13869;BME280;7004;48.206;16.402;2024-01-25T06:23:21;100267.22;;;9.09;65.51
13869;BME280;7004;48.206;16.402;2024-01-25T06:25:47;100277.63;;;9.12;65.02
13869;BME280;7004;48.206;16.402;2024-01-25T06:28:13;100267.06;;;8.95;65.26
13869;BME280;7004;48.206;16.402;2024-01-25T06:30:39;100270.72;;;9.10;64.84
13869;BME280;7004;48.206;16.402;2024-01-25T06:33:06;100285.00;;;9.06;64.78
13869;BME280;7004;48.206;16.402;2024-01-25T06:35:32;100287.22;;;8.96;65.75
13869;BME280;7004;48.206;16.402;2024-01-25T06:37:58;100292.00;;;8.88;65.01
13869;BME280;7004;48.206;16.402;2024-01-25T06:40:27;100296.75;;;8.99;64.22
13869;BME280;7004;48.206;16.402;2024-01-25T06:42:53;100306.22;;;9.03;64.72
13869;BME280;7004;48.206;16.402;2024-01-25T06:45:19;100316.66;;;9.06;64.77
13869;BME280;7004;48.206;16.402;2024-01-25T06:47:45;100313.66;;;8.94;65.22
13869;BME280;7004;48.206;16.402;2024-01-25T06:50:12;100321.63;;;9.12;64.41
13869;BME280;7004;48.206;16.402;2024-01-25T06:52:39;100328.19;;;8.84;65.30
13869;BME280;7004;48.206;16.402;2024-01-25T06:55:06;100322.56;;;8.92;65.35
13869;BME280;7004;48.206;16.402;2024-01-25T06:57:32;100334.31;;;9.04;65.04
13869;BME280;7004;48.206;16.402;2024-01-25T06:59:58;100332.03;;;8.96;65.48
13869;BME280;7004;48.206;16.402;2024-01-25T07:02:24;100341.50;;;9.00;65.57
13869;BME280;7004;48.206;16.402;2024-01-25T07:04:50;100343.53;;;8.95;65.20
13869;BME280;7004;48.206;16.402;2024-01-25T07:07:18;100347.22;;;8.91;65.49
13869;BME280;7004;48.206;16.402;2024-01-25T07:09:45;100351.06;;;9.03;65.13
13869;BME280;7004;48.206;16.402;2024-01-25T07:12:11;100342.59;;;8.96;64.92
13869;BME280;7004;48.206;16.402;2024-01-25T07:14:37;100349.16;;;9.06;64.81
13869;BME280;7004;48.206;16.402;2024-01-25T07:17:03;100340.38;;;8.87;65.44
13869;BME280;7004;48.206;16.402;2024-01-25T07:19:29;100350.63;;;9.12;64.99
13869;BME280;7004;48.206;16.402;2024-01-25T07:21:55;100350.44;;;8.98;65.56
13869;BME280;7004;48.206;16.402;2024-01-25T07:24:21;100355.72;;;8.98;65.19
13869;BME280;7004;48.206;16.402;2024-01-25T07:26:47;100353.19;;;8.94;65.54
13869;BME280;7004;48.206;16.402;2024-01-25T07:29:13;100367.03;;;9.00;65.39
13869;BME280;7004;48.206;16.402;2024-01-25T07:31:39;100376.56;;;9.02;65.57
13869;BME280;7004;48.206;16.402;2024-01-25T07:34:06;100378.91;;;9.27;65.00
13869;BME280;7004;48.206;16.402;2024-01-25T07:36:32;100378.00;;;9.09;65.04
13869;BME280;7004;48.206;16.402;2024-01-25T07:38:58;100381.44;;;9.11;65.27
13869;BME280;7004;48.206;16.402;2024-01-25T07:41:24;100408.94;;;9.06;64.75
13869;BME280;7004;48.206;16.402;2024-01-25T07:43:51;100402.31;;;9.16;64.41
13869;BME280;7004;48.206;16.402;2024-01-25T07:46:21;100412.16;;;9.12;64.70
13869;BME280;7004;48.206;16.402;2024-01-25T07:48:49;100413.63;;;9.18;63.03
13869;BME280;7004;48.206;16.402;2024-01-25T07:51:16;100413.44;;;9.23;63.19
13869;BME280;7004;48.206;16.402;2024-01-25T07:53:42;100423.19;;;9.39;62.53
13869;BME280;7004;48.206;16.402;2024-01-25T07:56:08;100420.06;;;9.31;62.03
13869;BME280;7004;48.206;16.402;2024-01-25T07:58:36;100404.09;;;9.15;62.36
13869;BME280;7004;48.206;16.402;2024-01-25T08:01:04;100426.06;;;9.35;61.73
13869;BME280;7004;48.206;16.402;2024-01-25T08:03:31;100413.78;;;9.15;61.82
13869;BME280;7004;48.206;16.402;2024-01-25T08:06:02;100422.63;;;9.33;62.38
13869;BME280;7004;48.206;16.402;2024-01-25T08:08:31;100419.56;;;9.23;60.95
13869;BME280;7004;48.206;16.402;2024-01-25T08:10:56;100418.69;;;9.23;60.83
13869;BME280;7004;48.206;16.402;2024-01-25T08:13:24;100426.91;;;9.16;60.65
13869;BME280;7004;48.206;16.402;2024-01-25T08:15:51;100428.41;;;9.22;59.12
13869;BME280;7004;48.206;16.402;2024-01-25T08:18:17;100431.63;;;9.29;57.60
13869;BME280;7004;48.206;16.402;2024-01-25T08:20:45;100423.97;;;9.23;56.82
13869;BME280;7004;48.206;16.402;2024-01-25T08:23:11;100422.41;;;9.37;55.98
13869;BME280;7004;48.206;16.402;2024-01-25T08:25:37;100430.22;;;9.39;55.24
13869;BME280;7004;48.206;16.402;2024-01-25T08:28:03;100432.53;;;9.28;55.13
13869;BME280;7004;48.206;16.402;2024-01-25T08:30:29;100424.84;;;9.42;54.93
13869;BME280;7004;48.206;16.402;2024-01-25T08:32:55;100432.81;;;9.40;54.06
13869;BME280;7004;48.206;16.402;2024-01-25T08:35:21;100423.25;;;9.38;53.61
13869;BME280;7004;48.206;16.402;2024-01-25T08:37:49;100430.81;;;9.46;53.29
13869;BME280;7004;48.206;16.402;2024-01-25T08:40:15;100435.25;;;9.45;52.89
13869;BME280;7004;48.206;16.402;2024-01-25T08:42:41;100423.56;;;9.32;51.78
13869;BME280;7004;48.206;16.402;2024-01-25T08:45:07;100440.09;;;9.35;51.40
13869;BME280;7004;48.206;16.402;2024-01-25T08:47:36;100437.94;;;9.44;51.41
13869;BME280;7004;48.206;16.402;2024-01-25T08:50:02;100415.84;;;9.27;51.05
13869;BME280;7004;48.206;16.402;2024-01-25T08:52:29;100434.31;;;9.46;51.19
13869;BME280;7004;48.206;16.402;2024-01-25T08:54:55;100412.19;;;9.49;50.58
13869;BME280;7004;48.206;16.402;2024-01-25T08:57:21;100426.97;;;9.53;50.36
13869;BME280;7004;48.206;16.402;2024-01-25T08:59:47;100413.75;;;9.53;50.71
13869;BME280;7004;48.206;16.402;2024-01-25T09:02:13;100416.25;;;9.56;50.79
13869;BME280;7004;48.206;16.402;2024-01-25T09:04:39;100423.22;;;9.76;51.10
13869;BME280;7004;48.206;16.402;2024-01-25T09:07:09;100435.16;;;9.83;50.91
13869;BME280;7004;48.206;16.402;2024-01-25T09:09:35;100443.09;;;9.83;51.39
13869;BME280;7004;48.206;16.402;2024-01-25T09:12:01;100438.75;;;9.82;52.39
13869;BME280;7004;48.206;16.402;2024-01-25T09:14:27;100450.63;;;9.73;52.85
13869;BME280;7004;48.206;16.402;2024-01-25T09:16:53;100444.19;;;10.33;50.87
13869;BME280;7004;48.206;16.402;2024-01-25T09:19:19;100449.53;;;10.48;50.87
13869;BME280;7004;48.206;16.402;2024-01-25T09:21:45;100462.09;;;10.61;51.88
13869;BME280;7004;48.206;16.402;2024-01-25T09:24:12;100473.63;;;10.25;53.40
13869;BME280;7004;48.206;16.402;2024-01-25T09:26:38;100476.81;;;9.95;54.69
13869;BME280;7004;48.206;16.402;2024-01-25T09:29:04;100489.59;;;10.04;55.17
13869;BME280;7004;48.206;16.402;2024-01-25T09:31:30;100489.38;;;10.09;55.50
13869;BME280;7004;48.206;16.402;2024-01-25T09:33:56;100495.03;;;10.01;55.36
13869;BME280;7004;48.206;16.402;2024-01-25T09:36:22;100488.50;;;10.27;54.75
13869;BME280;7004;48.206;16.402;2024-01-25T09:38:48;100486.91;;;10.58;54.72
13869;BME280;7004;48.206;16.402;2024-01-25T09:41:14;100493.09;;;10.05;55.40
13869;BME280;7004;48.206;16.402;2024-01-25T09:43:40;100484.31;;;10.04;55.14
13869;BME280;7004;48.206;16.402;2024-01-25T09:46:07;100478.16;;;10.40;54.01
13869;BME280;7004;48.206;16.402;2024-01-25T09:48:36;100494.84;;;10.58;53.97
13869;BME280;7004;48.206;16.402;2024-01-25T09:51:03;100483.19;;;10.27;53.87
13869;BME280;7004;48.206;16.402;2024-01-25T09:53:31;100489.56;;;10.41;52.94
13869;BME280;7004;48.206;16.402;2024-01-25T09:56:12;100487.44;;;10.13;52.97
13869;BME280;7004;48.206;16.402;2024-01-25T09:58:41;100504.34;;;10.09;51.83
13869;BME280;7004;48.206;16.402;2024-01-25T10:01:13;100493.47;;;9.97;51.92
13869;BME280;7004;48.206;16.402;2024-01-25T10:03:45;100502.22;;;9.98;51.24
13869;BME280;7004;48.206;16.402;2024-01-25T10:06:16;100503.31;;;10.65;50.23
13869;BME280;7004;48.206;16.402;2024-01-25T10:08:43;100478.84;;;10.44;49.70
13869;BME280;7004;48.206;16.402;2024-01-25T10:11:09;100497.53;;;10.22;47.78
13869;BME280;7004;48.206;16.402;2024-01-25T10:13:45;100516.00;;;9.85;47.46
13869;BME280;7004;48.206;16.402;2024-01-25T10:16:17;100508.31;;;10.36;46.67
13869;BME280;7004;48.206;16.402;2024-01-25T10:18:46;100509.78;;;10.59;46.75
13869;BME280;7004;48.206;16.402;2024-01-25T10:21:15;100525.88;;;10.18;47.78
13869;BME280;7004;48.206;16.402;2024-01-25T10:23:44;100506.03;;;10.28;45.97
13869;BME280;7004;48.206;16.402;2024-01-25T10:26:12;100520.22;;;10.26;46.78
13869;BME280;7004;48.206;16.402;2024-01-25T10:28:38;100508.47;;;10.14;45.68
13869;BME280;7004;48.206;16.402;2024-01-25T10:31:04;100507.38;;;10.55;45.86
13869;BME280;7004;48.206;16.402;2024-01-25T10:33:32;100510.50;;;10.09;47.60
13869;BME280;7004;48.206;16.402;2024-01-25T10:36:00;100509.66;;;10.26;48.92
13869;BME280;7004;48.206;16.402;2024-01-25T10:38:36;100506.38;;;10.21;49.19
13869;BME280;7004;48.206;16.402;2024-01-25T10:41:05;100493.91;;;10.42;50.41
13869;BME280;7004;48.206;16.402;2024-01-25T10:43:32;100488.03;;;10.54;51.63
13869;BME280;7004;48.206;16.402;2024-01-25T10:45:59;100475.63;;;10.20;53.44
13869;BME280;7004;48.206;16.402;2024-01-25T10:48:26;100487.72;;;10.43;53.32
13869;BME280;7004;48.206;16.402;2024-01-25T10:50:54;100477.84;;;10.46;53.74
13869;BME280;7004;48.206;16.402;2024-01-25T10:53:23;100479.81;;;10.24;55.27
13869;BME280;7004;48.206;16.402;2024-01-25T10:55:50;100469.41;;;10.21;56.32
13869;BME280;7004;48.206;16.402;2024-01-25T10:58:17;100463.69;;;10.47;55.61
13869;BME280;7004;48.206;16.402;2024-01-25T11:00:55;100461.53;;;10.19;56.44
13869;BME280;7004;48.206;16.402;2024-01-25T11:03:31;100464.72;;;10.09;57.24
13869;BME280;7004;48.206;16.402;2024-01-25T11:06:10;100462.38;;;10.02;58.46
13869;BME280;7004;48.206;16.402;2024-01-25T11:08:38;100465.38;;;9.77;59.18
13869;BME280;7004;48.206;16.402;2024-01-25T11:11:11;100462.97;;;10.09;57.79
13869;BME280;7004;48.206;16.402;2024-01-25T11:13:42;100469.00;;;10.11;58.02
13869;BME280;7004;48.206;16.402;2024-01-25T11:16:24;100458.00;;;9.84;57.93
13869;BME280;7004;48.206;16.402;2024-01-25T11:18:59;100462.38;;;10.02;58.35
13869;BME280;7004;48.206;16.402;2024-01-25T11:21:44;100469.28;;;9.88;58.49
13869;BME280;7004;48.206;16.402;2024-01-25T11:24:22;100462.69;;;10.33;57.01
13869;BME280;7004;48.206;16.402;2024-01-25T11:26:50;100466.88;;;10.37;56.86
13869;BME280;7004;48.206;16.402;2024-01-25T11:29:18;100457.38;;;10.67;55.71
13869;BME280;7004;48.206;16.402;2024-01-25T11:31:47;100455.44;;;10.36;56.44
13869;BME280;7004;48.206;16.402;2024-01-25T11:34:15;100451.34;;;10.81;55.98
13869;BME280;7004;48.206;16.402;2024-01-25T11:36:43;100450.78;;;10.41;56.09
13869;BME280;7004;48.206;16.402;2024-01-25T11:39:11;100449.09;;;10.40;56.03
13869;BME280;7004;48.206;16.402;2024-01-25T11:41:37;100448.69;;;10.48;55.32
13869;BME280;7004;48.206;16.402;2024-01-25T11:44:04;100451.88;;;10.88;54.26
13869;BME280;7004;48.206;16.402;2024-01-25T11:46:30;100450.31;;;11.17;52.88
13869;BME280;7004;48.206;16.402;2024-01-25T11:49:00;100449.56;;;10.82;52.89
13869;BME280;7004;48.206;16.402;2024-01-25T11:51:27;100433.59;;;11.32;53.68
13869;BME280;7004;48.206;16.402;2024-01-25T11:53:53;100425.13;;;11.26;51.21
13869;BME280;7004;48.206;16.402;2024-01-25T11:56:36;100425.59;;;11.50;51.23
13869;BME280;7004;48.206;16.402;2024-01-25T11:59:04;100437.66;;;10.90;51.99
13869;BME280;7004;48.206;16.402;2024-01-25T12:01:31;100434.91;;;12.03;59.08
13869;BME280;7004;48.206;16.402;2024-01-25T12:03:57;100422.78;;;10.88;51.38
13869;BME280;7004;48.206;16.402;2024-01-25T12:06:24;100438.81;;;11.66;54.31
13869;BME280;7004;48.206;16.402;2024-01-25T12:08:50;100454.25;;;11.73;50.97
13869;BME280;7004;48.206;16.402;2024-01-25T12:11:17;100428.47;;;11.13;51.19
13869;BME280;7004;48.206;16.402;2024-01-25T12:13:45;100425.75;;;11.63;52.07
13869;BME280;7004;48.206;16.402;2024-01-25T12:16:12;100429.44;;;10.79;51.61
13869;BME280;7004;48.206;16.402;2024-01-25T12:18:41;100433.94;;;10.77;52.47
13869;BME280;7004;48.206;16.402;2024-01-25T12:21:07;100417.03;;;11.29;51.01
13869;BME280;7004;48.206;16.402;2024-01-25T12:23:39;100419.91;;;10.92;51.70
13869;BME280;7004;48.206;16.402;2024-01-25T12:26:07;100401.03;;;10.83;51.25
13869;BME280;7004;48.206;16.402;2024-01-25T12:28:34;100405.19;;;10.87;51.86
13869;BME280;7004;48.206;16.402;2024-01-25T12:31:02;100410.03;;;11.12;49.87
13869;BME280;7004;48.206;16.402;2024-01-25T12:33:30;100403.81;;;11.13;50.43
13869;BME280;7004;48.206;16.402;2024-01-25T12:35:57;100392.75;;;11.05;50.50
13869;BME280;7004;48.206;16.402;2024-01-25T12:38:25;100379.47;;;11.22;49.03
13869;BME280;7004;48.206;16.402;2024-01-25T12:40:55;100380.66;;;11.32;48.97
13869;BME280;7004;48.206;16.402;2024-01-25T12:43:21;100377.72;;;11.69;48.30
13869;BME280;7004;48.206;16.402;2024-01-25T12:45:47;100378.25;;;11.12;49.01
13869;BME280;7004;48.206;16.402;2024-01-25T12:48:14;100383.72;;;11.09;48.43
13869;BME280;7004;48.206;16.402;2024-01-25T12:50:41;100373.38;;;10.88;49.28
13869;BME280;7004;48.206;16.402;2024-01-25T12:53:09;100386.25;;;10.94;47.80
13869;BME280;7004;48.206;16.402;2024-01-25T12:55:37;100381.88;;;11.27;47.80